sensor_id;sensor_type;location;lat;lon;timestamp;P1;durP1;ratioP1;P2;durP2;ratioP2
44728;SDS011;30457;53.590;9.922;2022-08-16T00:01:01;5.97;;;5.10;;
44728;SDS011;30457;53.590;9.922;2022-08-16T00:05:28;5.82;;;5.28;;
44728;SDS011;30457;53.590;9.922;2022-08-16T00:09:54;6.63;;;5.07;;
44728;SDS011;30457;53.590;9.922;2022-08-16T00:14:21;6.15;;;5.55;;
44728;SDS011;30457;53.590;9.922;2022-08-16T00:18:49;7.07;;;5.63;;
44728;SDS011;30457;53.590;9.922;2022-08-16T00:23:15;6.82;;;5.32;;
44728;SDS011;30457;53.590;9.922;2022-08-16T00:27:41;5.95;;;5.35;;
44728;SDS011;30457;53.590;9.922;2022-08-16T00:32:07;7.50;;;5.45;;
44728;SDS011;30457;53.590;9.922;2022-08-16T00:36:33;6.18;;;5.55;;
44728;SDS011;30457;53.590;9.922;2022-08-16T00:40:59;6.10;;;5.50;;
44728;SDS011;30457;53.590;9.922;2022-08-16T00:50:04;6.18;;;5.57;;
44728;SDS011;30457;53.590;9.922;2022-08-16T00:54:31;6.75;;;5.88;;
44728;SDS011;30457;53.590;9.922;2022-08-16T00:58:56;6.68;;;5.90;;
44728;SDS011;30457;53.590;9.922;2022-08-16T01:03:24;9.13;;;6.05;;
44728;SDS011;30457;53.590;9.922;2022-08-16T01:07:52;6.35;;;5.72;;
44728;SDS011;30457;53.590;9.922;2022-08-16T01:12:18;10.57;;;7.72;;
44728;SDS011;30457;53.590;9.922;2022-08-16T01:16:45;8.75;;;7.25;;
44728;SDS011;30457;53.590;9.922;2022-08-16T01:21:21;6.88;;;6.25;;
44728;SDS011;30457;53.590;9.922;2022-08-16T01:25:51;7.22;;;6.53;;
44728;SDS011;30457;53.590;9.922;2022-08-16T01:30:19;6.88;;;6.20;;
44728;SDS011;30457;53.590;9.922;2022-08-16T01:34:51;7.95;;;6.22;;
44728;SDS011;30457;53.590;9.922;2022-08-16T01:39:17;7.93;;;7.07;;
44728;SDS011;30457;53.590;9.922;2022-08-16T01:43:44;8.48;;;7.05;;
44728;SDS011;30457;53.590;9.922;2022-08-16T01:48:11;9.43;;;7.82;;
44728;SDS011;30457;53.590;9.922;2022-08-16T01:52:37;7.60;;;6.88;;
44728;SDS011;30457;53.590;9.922;2022-08-16T01:57:14;8.75;;;6.95;;
44728;SDS011;30457;53.590;9.922;2022-08-16T02:01:40;8.55;;;7.30;;
44728;SDS011;30457;53.590;9.922;2022-08-16T02:06:07;8.32;;;6.68;;
44728;SDS011;30457;53.590;9.922;2022-08-16T02:10:33;8.30;;;6.97;;
44728;SDS011;30457;53.590;9.922;2022-08-16T02:15:02;8.40;;;7.40;;
44728;SDS011;30457;53.590;9.922;2022-08-16T02:19:29;9.10;;;7.65;;
44728;SDS011;30457;53.590;9.922;2022-08-16T02:23:56;10.32;;;7.50;;
44728;SDS011;30457;53.590;9.922;2022-08-16T02:28:23;8.00;;;7.00;;
44728;SDS011;30457;53.590;9.922;2022-08-16T02:32:49;7.55;;;6.75;;
44728;SDS011;30457;53.590;9.922;2022-08-16T02:37:15;8.90;;;7.50;;
44728;SDS011;30457;53.590;9.922;2022-08-16T02:41:42;7.60;;;6.90;;
44728;SDS011;30457;53.590;9.922;2022-08-16T02:46:10;10.60;;;8.50;;
44728;SDS011;30457;53.590;9.922;2022-08-16T02:50:36;9.07;;;8.00;;
44728;SDS011;30457;53.590;9.922;2022-08-16T02:55:02;9.13;;;8.23;;
44728;SDS011;30457;53.590;9.922;2022-08-16T02:59:28;11.57;;;8.65;;
44728;SDS011;30457;53.590;9.922;2022-08-16T03:03:55;11.52;;;9.15;;
44728;SDS011;30457;53.590;9.922;2022-08-16T03:08:23;8.43;;;7.57;;
44728;SDS011;30457;53.590;9.922;2022-08-16T03:12:49;9.65;;;8.05;;
44728;SDS011;30457;53.590;9.922;2022-08-16T03:17:15;10.02;;;8.48;;
44728;SDS011;30457;53.590;9.922;2022-08-16T03:21:42;9.68;;;8.48;;
44728;SDS011;30457;53.590;9.922;2022-08-16T03:26:08;17.58;;;8.70;;
44728;SDS011;30457;53.590;9.922;2022-08-16T03:30:36;9.38;;;7.82;;
44728;SDS011;30457;53.590;9.922;2022-08-16T03:35:05;12.30;;;9.38;;
44728;SDS011;30457;53.590;9.922;2022-08-16T03:39:32;9.80;;;8.73;;
44728;SDS011;30457;53.590;9.922;2022-08-16T03:43:58;8.50;;;7.65;;
44728;SDS011;30457;53.590;9.922;2022-08-16T03:48:28;9.07;;;8.18;;
44728;SDS011;30457;53.590;9.922;2022-08-16T03:52:58;10.05;;;8.77;;
44728;SDS011;30457;53.590;9.922;2022-08-16T03:57:24;10.07;;;9.05;;
44728;SDS011;30457;53.590;9.922;2022-08-16T04:01:51;10.98;;;9.38;;
44728;SDS011;30457;53.590;9.922;2022-08-16T04:06:18;16.73;;;9.48;;
44728;SDS011;30457;53.590;9.922;2022-08-16T04:10:44;11.02;;;9.02;;
44728;SDS011;30457;53.590;9.922;2022-08-16T04:15:11;11.30;;;9.10;;
44728;SDS011;30457;53.590;9.922;2022-08-16T04:19:46;10.45;;;8.68;;
44728;SDS011;30457;53.590;9.922;2022-08-16T04:24:14;9.63;;;8.43;;
44728;SDS011;30457;53.590;9.922;2022-08-16T04:28:40;12.27;;;10.48;;
44728;SDS011;30457;53.590;9.922;2022-08-16T04:33:08;15.32;;;10.27;;
44728;SDS011;30457;53.590;9.922;2022-08-16T04:37:36;12.13;;;9.13;;
44728;SDS011;30457;53.590;9.922;2022-08-16T04:42:10;11.30;;;8.73;;
44728;SDS011;30457;53.590;9.922;2022-08-16T04:46:36;10.65;;;9.52;;
44728;SDS011;30457;53.590;9.922;2022-08-16T04:51:03;12.52;;;9.23;;
44728;SDS011;30457;53.590;9.922;2022-08-16T04:55:35;13.82;;;9.90;;
44728;SDS011;30457;53.590;9.922;2022-08-16T05:00:02;12.15;;;10.35;;
44728;SDS011;30457;53.590;9.922;2022-08-16T05:04:31;14.57;;;11.32;;
44728;SDS011;30457;53.590;9.922;2022-08-16T05:08:58;13.48;;;11.75;;
44728;SDS011;30457;53.590;9.922;2022-08-16T05:13:24;13.05;;;10.80;;
44728;SDS011;30457;53.590;9.922;2022-08-16T05:17:49;17.88;;;11.60;;
44728;SDS011;30457;53.590;9.922;2022-08-16T05:22:15;14.20;;;12.02;;
44728;SDS011;30457;53.590;9.922;2022-08-16T05:26:42;14.82;;;10.40;;
44728;SDS011;30457;53.590;9.922;2022-08-16T05:31:10;17.05;;;10.93;;
44728;SDS011;30457;53.590;9.922;2022-08-16T05:35:36;26.08;;;12.98;;
44728;SDS011;30457;53.590;9.922;2022-08-16T05:40:10;21.75;;;12.23;;
44728;SDS011;30457;53.590;9.922;2022-08-16T05:44:37;16.63;;;11.77;;
44728;SDS011;30457;53.590;9.922;2022-08-16T05:49:02;15.80;;;12.23;;
44728;SDS011;30457;53.590;9.922;2022-08-16T05:53:28;14.23;;;11.10;;
44728;SDS011;30457;53.590;9.922;2022-08-16T05:58:05;12.52;;;10.65;;
44728;SDS011;30457;53.590;9.922;2022-08-16T06:02:31;13.48;;;10.57;;
44728;SDS011;30457;53.590;9.922;2022-08-16T06:06:58;16.20;;;10.20;;
44728;SDS011;30457;53.590;9.922;2022-08-16T06:11:28;14.02;;;11.30;;
44728;SDS011;30457;53.590;9.922;2022-08-16T06:15:58;13.55;;;10.13;;
44728;SDS011;30457;53.590;9.922;2022-08-16T06:20:25;11.13;;;9.32;;
44728;SDS011;30457;53.590;9.922;2022-08-16T06:24:56;12.45;;;9.10;;
44728;SDS011;30457;53.590;9.922;2022-08-16T06:29:22;17.10;;;9.68;;
44728;SDS011;30457;53.590;9.922;2022-08-16T06:33:48;17.33;;;11.20;;
44728;SDS011;30457;53.590;9.922;2022-08-16T06:38:16;14.00;;;10.55;;
44728;SDS011;30457;53.590;9.922;2022-08-16T06:42:42;15.23;;;10.63;;
44728;SDS011;30457;53.590;9.922;2022-08-16T06:47:26;13.23;;;9.00;;
44728;SDS011;30457;53.590;9.922;2022-08-16T06:51:52;12.02;;;8.85;;
44728;SDS011;30457;53.590;9.922;2022-08-16T06:56:23;13.35;;;9.23;;
44728;SDS011;30457;53.590;9.922;2022-08-16T07:01:05;13.27;;;9.70;;
44728;SDS011;30457;53.590;9.922;2022-08-16T07:05:32;9.32;;;7.70;;
44728;SDS011;30457;53.590;9.922;2022-08-16T07:10:07;12.73;;;7.33;;
44728;SDS011;30457;53.590;9.922;2022-08-16T07:14:33;13.57;;;7.65;;
44728;SDS011;30457;53.590;9.922;2022-08-16T07:18:59;9.82;;;7.18;;
44728;SDS011;30457;53.590;9.922;2022-08-16T07:23:26;9.07;;;6.68;;
44728;SDS011;30457;53.590;9.922;2022-08-16T07:27:56;8.27;;;6.20;;
44728;SDS011;30457;53.590;9.922;2022-08-16T07:32:25;9.30;;;6.78;;
44728;SDS011;30457;53.590;9.922;2022-08-16T07:36:51;9.38;;;6.07;;
44728;SDS011;30457;53.590;9.922;2022-08-16T07:41:16;10.20;;;5.90;;
44728;SDS011;30457;53.590;9.922;2022-08-16T07:45:46;7.93;;;6.50;;
44728;SDS011;30457;53.590;9.922;2022-08-16T07:50:14;8.50;;;6.25;;
44728;SDS011;30457;53.590;9.922;2022-08-16T07:54:41;6.85;;;6.15;;
44728;SDS011;30457;53.590;9.922;2022-08-16T07:59:09;12.13;;;6.72;;
44728;SDS011;30457;53.590;9.922;2022-08-16T08:03:35;10.10;;;6.82;;
44728;SDS011;30457;53.590;9.922;2022-08-16T08:08:01;11.02;;;7.05;;
44728;SDS011;30457;53.590;9.922;2022-08-16T08:12:28;8.55;;;6.03;;
44728;SDS011;30457;53.590;9.922;2022-08-16T08:16:54;7.22;;;4.82;;
44728;SDS011;30457;53.590;9.922;2022-08-16T08:21:24;10.52;;;4.72;;
44728;SDS011;30457;53.590;9.922;2022-08-16T08:25:50;7.57;;;5.95;;
44728;SDS011;30457;53.590;9.922;2022-08-16T08:30:16;7.20;;;4.32;;
44728;SDS011;30457;53.590;9.922;2022-08-16T08:34:44;7.65;;;5.18;;
44728;SDS011;30457;53.590;9.922;2022-08-16T08:39:09;7.78;;;5.05;;
44728;SDS011;30457;53.590;9.922;2022-08-16T08:43:35;5.72;;;4.80;;
44728;SDS011;30457;53.590;9.922;2022-08-16T08:48:02;8.00;;;4.18;;
44728;SDS011;30457;53.590;9.922;2022-08-16T08:52:31;5.53;;;4.07;;
44728;SDS011;30457;53.590;9.922;2022-08-16T08:56:57;6.45;;;4.70;;
44728;SDS011;30457;53.590;9.922;2022-08-16T09:01:32;9.20;;;5.50;;
44728;SDS011;30457;53.590;9.922;2022-08-16T09:06:00;7.50;;;4.72;;
44728;SDS011;30457;53.590;9.922;2022-08-16T09:10:29;7.65;;;4.68;;
44728;SDS011;30457;53.590;9.922;2022-08-16T09:14:55;5.47;;;3.85;;
44728;SDS011;30457;53.590;9.922;2022-08-16T09:19:24;7.82;;;4.60;;
44728;SDS011;30457;53.590;9.922;2022-08-16T09:23:52;5.53;;;3.95;;
44728;SDS011;30457;53.590;9.922;2022-08-16T09:28:18;5.80;;;4.25;;
44728;SDS011;30457;53.590;9.922;2022-08-16T09:32:48;5.88;;;4.30;;
44728;SDS011;30457;53.590;9.922;2022-08-16T09:37:15;4.78;;;3.70;;
44728;SDS011;30457;53.590;9.922;2022-08-16T09:41:40;5.50;;;3.80;;
44728;SDS011;30457;53.590;9.922;2022-08-16T09:46:06;4.28;;;3.85;;
44728;SDS011;30457;53.590;9.922;2022-08-16T09:50:32;4.43;;;3.80;;
44728;SDS011;30457;53.590;9.922;2022-08-16T09:55:00;5.65;;;4.03;;
44728;SDS011;30457;53.590;9.922;2022-08-16T09:59:27;5.22;;;4.00;;
44728;SDS011;30457;53.590;9.922;2022-08-16T10:03:53;6.05;;;4.50;;
44728;SDS011;30457;53.590;9.922;2022-08-16T10:08:21;4.90;;;3.85;;
44728;SDS011;30457;53.590;9.922;2022-08-16T10:12:47;8.63;;;4.60;;
44728;SDS011;30457;53.590;9.922;2022-08-16T10:21:57;5.32;;;3.90;;
44728;SDS011;30457;53.590;9.922;2022-08-16T10:26:23;4.97;;;4.15;;
44728;SDS011;30457;53.590;9.922;2022-08-16T10:30:49;4.93;;;4.30;;
44728;SDS011;30457;53.590;9.922;2022-08-16T10:35:15;11.52;;;4.90;;
44728;SDS011;30457;53.590;9.922;2022-08-16T10:39:40;9.10;;;4.38;;
44728;SDS011;30457;53.590;9.922;2022-08-16T10:44:06;5.70;;;4.85;;
44728;SDS011;30457;53.590;9.922;2022-08-16T10:48:31;4.40;;;4.00;;
44728;SDS011;30457;53.590;9.922;2022-08-16T10:52:58;5.13;;;4.47;;
44728;SDS011;30457;53.590;9.922;2022-08-16T10:57:24;4.57;;;4.18;;
44728;SDS011;30457;53.590;9.922;2022-08-16T11:01:51;6.25;;;4.28;;
44728;SDS011;30457;53.590;9.922;2022-08-16T11:06:17;5.63;;;3.88;;
44728;SDS011;30457;53.590;9.922;2022-08-16T11:10:43;4.75;;;4.05;;
44728;SDS011;30457;53.590;9.922;2022-08-16T11:15:10;10.77;;;3.80;;
44728;SDS011;30457;53.590;9.922;2022-08-16T11:19:37;9.30;;;4.18;;
44728;SDS011;30457;53.590;9.922;2022-08-16T11:24:05;5.90;;;4.05;;
44728;SDS011;30457;53.590;9.922;2022-08-16T11:28:32;5.13;;;3.97;;
44728;SDS011;30457;53.590;9.922;2022-08-16T11:32:58;6.43;;;4.35;;
44728;SDS011;30457;53.590;9.922;2022-08-16T11:37:27;6.03;;;3.78;;
44728;SDS011;30457;53.590;9.922;2022-08-16T11:41:52;5.40;;;3.80;;
44728;SDS011;30457;53.590;9.922;2022-08-16T11:46:19;11.52;;;4.15;;
44728;SDS011;30457;53.590;9.922;2022-08-16T11:50:45;4.20;;;3.45;;
44728;SDS011;30457;53.590;9.922;2022-08-16T11:55:11;6.45;;;4.03;;
44728;SDS011;30457;53.590;9.922;2022-08-16T11:59:37;5.60;;;4.22;;
44728;SDS011;30457;53.590;9.922;2022-08-16T12:04:03;4.38;;;3.97;;
44728;SDS011;30457;53.590;9.922;2022-08-16T12:08:30;4.72;;;4.15;;
44728;SDS011;30457;53.590;9.922;2022-08-16T12:12:56;4.30;;;3.90;;
44728;SDS011;30457;53.590;9.922;2022-08-16T12:17:21;6.25;;;4.30;;
44728;SDS011;30457;53.590;9.922;2022-08-16T12:21:47;5.53;;;4.68;;
44728;SDS011;30457;53.590;9.922;2022-08-16T12:26:12;7.47;;;4.18;;
44728;SDS011;30457;53.590;9.922;2022-08-16T12:30:41;4.93;;;4.07;;
44728;SDS011;30457;53.590;9.922;2022-08-16T12:35:10;5.53;;;4.20;;
44728;SDS011;30457;53.590;9.922;2022-08-16T12:39:38;6.72;;;4.32;;
44728;SDS011;30457;53.590;9.922;2022-08-16T12:44:04;7.65;;;4.22;;
44728;SDS011;30457;53.590;9.922;2022-08-16T12:48:30;6.50;;;3.80;;
44728;SDS011;30457;53.590;9.922;2022-08-16T12:53:16;5.03;;;4.18;;
44728;SDS011;30457;53.590;9.922;2022-08-16T12:57:42;6.47;;;4.30;;
44728;SDS011;30457;53.590;9.922;2022-08-16T13:02:07;4.20;;;3.80;;
44728;SDS011;30457;53.590;9.922;2022-08-16T13:06:34;4.68;;;3.65;;
44728;SDS011;30457;53.590;9.922;2022-08-16T13:11:00;5.53;;;3.08;;
44728;SDS011;30457;53.590;9.922;2022-08-16T13:15:27;5.68;;;2.97;;
44728;SDS011;30457;53.590;9.922;2022-08-16T13:19:53;5.07;;;3.83;;
44728;SDS011;30457;53.590;9.922;2022-08-16T13:24:18;5.22;;;4.30;;
44728;SDS011;30457;53.590;9.922;2022-08-16T13:28:44;5.95;;;3.38;;
44728;SDS011;30457;53.590;9.922;2022-08-16T13:33:29;3.58;;;3.28;;
44728;SDS011;30457;53.590;9.922;2022-08-16T13:38:00;4.90;;;3.50;;
44728;SDS011;30457;53.590;9.922;2022-08-16T13:42:26;3.85;;;3.53;;
44728;SDS011;30457;53.590;9.922;2022-08-16T13:46:52;6.20;;;3.58;;
44728;SDS011;30457;53.590;9.922;2022-08-16T13:51:18;6.35;;;3.38;;
44728;SDS011;30457;53.590;9.922;2022-08-16T13:55:44;4.60;;;3.72;;
44728;SDS011;30457;53.590;9.922;2022-08-16T14:00:09;4.28;;;3.55;;
44728;SDS011;30457;53.590;9.922;2022-08-16T14:04:38;8.52;;;3.50;;
44728;SDS011;30457;53.590;9.922;2022-08-16T14:09:05;3.50;;;2.97;;
44728;SDS011;30457;53.590;9.922;2022-08-16T14:13:31;3.90;;;3.50;;
44728;SDS011;30457;53.590;9.922;2022-08-16T14:17:58;5.28;;;3.20;;
44728;SDS011;30457;53.590;9.922;2022-08-16T14:22:24;5.25;;;3.60;;
44728;SDS011;30457;53.590;9.922;2022-08-16T14:26:52;4.47;;;3.47;;
44728;SDS011;30457;53.590;9.922;2022-08-16T14:31:17;4.38;;;3.10;;
44728;SDS011;30457;53.590;9.922;2022-08-16T14:35:44;3.75;;;3.45;;
44728;SDS011;30457;53.590;9.922;2022-08-16T14:40:14;4.35;;;3.40;;
44728;SDS011;30457;53.590;9.922;2022-08-16T14:44:41;6.15;;;3.10;;
44728;SDS011;30457;53.590;9.922;2022-08-16T14:49:07;6.63;;;3.70;;
44728;SDS011;30457;53.590;9.922;2022-08-16T14:53:34;4.60;;;3.15;;
44728;SDS011;30457;53.590;9.922;2022-08-16T14:58:01;3.88;;;3.20;;
44728;SDS011;30457;53.590;9.922;2022-08-16T15:02:27;6.47;;;3.80;;
44728;SDS011;30457;53.590;9.922;2022-08-16T15:06:53;4.95;;;3.58;;
44728;SDS011;30457;53.590;9.922;2022-08-16T15:11:18;3.92;;;3.60;;
44728;SDS011;30457;53.590;9.922;2022-08-16T15:15:44;5.15;;;3.63;;
44728;SDS011;30457;53.590;9.922;2022-08-16T15:20:10;6.07;;;3.20;;
44728;SDS011;30457;53.590;9.922;2022-08-16T15:24:36;3.90;;;3.50;;
44728;SDS011;30457;53.590;9.922;2022-08-16T15:29:03;6.32;;;4.30;;
44728;SDS011;30457;53.590;9.922;2022-08-16T15:33:30;3.92;;;3.53;;
44728;SDS011;30457;53.590;9.922;2022-08-16T15:37:58;6.07;;;3.53;;
44728;SDS011;30457;53.590;9.922;2022-08-16T15:42:24;5.03;;;3.60;;
44728;SDS011;30457;53.590;9.922;2022-08-16T15:46:51;3.97;;;3.63;;
44728;SDS011;30457;53.590;9.922;2022-08-16T15:51:19;4.60;;;3.55;;
44728;SDS011;30457;53.590;9.922;2022-08-16T15:55:45;6.85;;;3.55;;
44728;SDS011;30457;53.590;9.922;2022-08-16T16:00:12;3.90;;;3.60;;
44728;SDS011;30457;53.590;9.922;2022-08-16T16:04:38;4.00;;;2.78;;
44728;SDS011;30457;53.590;9.922;2022-08-16T16:09:04;3.35;;;3.15;;
44728;SDS011;30457;53.590;9.922;2022-08-16T16:13:30;4.03;;;3.60;;
44728;SDS011;30457;53.590;9.922;2022-08-16T16:17:57;4.43;;;3.67;;
44728;SDS011;30457;53.590;9.922;2022-08-16T16:22:23;4.30;;;3.22;;
44728;SDS011;30457;53.590;9.922;2022-08-16T16:26:48;3.65;;;3.35;;
44728;SDS011;30457;53.590;9.922;2022-08-16T16:31:16;4.18;;;3.17;;
44728;SDS011;30457;53.590;9.922;2022-08-16T16:35:43;3.88;;;3.58;;
44728;SDS011;30457;53.590;9.922;2022-08-16T16:40:10;6.63;;;3.60;;
44728;SDS011;30457;53.590;9.922;2022-08-16T16:44:36;4.20;;;3.50;;
44728;SDS011;30457;53.590;9.922;2022-08-16T16:49:04;4.28;;;3.47;;
44728;SDS011;30457;53.590;9.922;2022-08-16T16:53:32;4.28;;;3.50;;
44728;SDS011;30457;53.590;9.922;2022-08-16T16:57:59;4.65;;;3.58;;
44728;SDS011;30457;53.590;9.922;2022-08-16T17:02:43;4.90;;;3.78;;
44728;SDS011;30457;53.590;9.922;2022-08-16T17:07:09;3.70;;;3.40;;
44728;SDS011;30457;53.590;9.922;2022-08-16T17:11:35;4.38;;;3.33;;
44728;SDS011;30457;53.590;9.922;2022-08-16T17:16:02;7.75;;;4.25;;
44728;SDS011;30457;53.590;9.922;2022-08-16T17:20:28;6.80;;;3.13;;
44728;SDS011;30457;53.590;9.922;2022-08-16T17:24:54;5.47;;;3.55;;
44728;SDS011;30457;53.590;9.922;2022-08-16T17:29:19;3.58;;;3.28;;
44728;SDS011;30457;53.590;9.922;2022-08-16T17:33:46;5.45;;;3.72;;
44728;SDS011;30457;53.590;9.922;2022-08-16T17:38:12;4.85;;;3.40;;
44728;SDS011;30457;53.590;9.922;2022-08-16T17:42:40;3.45;;;3.15;;
44728;SDS011;30457;53.590;9.922;2022-08-16T17:47:06;5.57;;;3.35;;
44728;SDS011;30457;53.590;9.922;2022-08-16T17:51:31;5.53;;;3.95;;
44728;SDS011;30457;53.590;9.922;2022-08-16T17:55:58;3.88;;;3.47;;
44728;SDS011;30457;53.590;9.922;2022-08-16T18:00:24;5.28;;;3.20;;
44728;SDS011;30457;53.590;9.922;2022-08-16T18:04:50;4.05;;;3.60;;
44728;SDS011;30457;53.590;9.922;2022-08-16T18:09:16;3.83;;;3.42;;
44728;SDS011;30457;53.590;9.922;2022-08-16T18:13:42;6.72;;;3.30;;
44728;SDS011;30457;53.590;9.922;2022-08-16T18:18:11;4.30;;;3.55;;
44728;SDS011;30457;53.590;9.922;2022-08-16T18:22:37;4.88;;;3.47;;
44728;SDS011;30457;53.590;9.922;2022-08-16T18:27:03;3.85;;;3.45;;
44728;SDS011;30457;53.590;9.922;2022-08-16T18:31:29;4.28;;;3.47;;
44728;SDS011;30457;53.590;9.922;2022-08-16T18:35:55;5.13;;;3.45;;
44728;SDS011;30457;53.590;9.922;2022-08-16T18:40:20;4.05;;;3.63;;
44728;SDS011;30457;53.590;9.922;2022-08-16T18:44:46;6.88;;;3.40;;
44728;SDS011;30457;53.590;9.922;2022-08-16T18:49:13;3.55;;;3.25;;
44728;SDS011;30457;53.590;9.922;2022-08-16T18:53:39;3.65;;;3.28;;
44728;SDS011;30457;53.590;9.922;2022-08-16T18:58:04;3.78;;;3.35;;
44728;SDS011;30457;53.590;9.922;2022-08-16T19:02:30;5.90;;;4.30;;
44728;SDS011;30457;53.590;9.922;2022-08-16T19:06:55;7.03;;;3.63;;
44728;SDS011;30457;53.590;9.922;2022-08-16T19:11:21;6.10;;;3.50;;
44728;SDS011;30457;53.590;9.922;2022-08-16T19:15:50;7.05;;;3.70;;
44728;SDS011;30457;53.590;9.922;2022-08-16T19:20:20;4.15;;;3.50;;
44728;SDS011;30457;53.590;9.922;2022-08-16T19:24:48;3.92;;;3.58;;
44728;SDS011;30457;53.590;9.922;2022-08-16T19:29:14;3.45;;;3.15;;
44728;SDS011;30457;53.590;9.922;2022-08-16T19:33:40;7.07;;;3.45;;
44728;SDS011;30457;53.590;9.922;2022-08-16T19:38:07;3.70;;;3.30;;
44728;SDS011;30457;53.590;9.922;2022-08-16T19:42:33;3.60;;;3.30;;
44728;SDS011;30457;53.590;9.922;2022-08-16T19:46:59;6.30;;;3.53;;
44728;SDS011;30457;53.590;9.922;2022-08-16T19:51:25;5.03;;;3.45;;
44728;SDS011;30457;53.590;9.922;2022-08-16T19:55:51;4.68;;;3.67;;
44728;SDS011;30457;53.590;9.922;2022-08-16T20:00:17;4.32;;;3.92;;
44728;SDS011;30457;53.590;9.922;2022-08-16T20:04:43;4.00;;;3.60;;
44728;SDS011;30457;53.590;9.922;2022-08-16T20:09:09;5.05;;;3.10;;
44728;SDS011;30457;53.590;9.922;2022-08-16T20:13:35;7.10;;;4.10;;
44728;SDS011;30457;53.590;9.922;2022-08-16T20:18:02;5.28;;;3.63;;
44728;SDS011;30457;53.590;9.922;2022-08-16T20:22:29;4.10;;;3.70;;
44728;SDS011;30457;53.590;9.922;2022-08-16T20:26:56;6.53;;;4.05;;
44728;SDS011;30457;53.590;9.922;2022-08-16T20:31:22;4.32;;;3.92;;
44728;SDS011;30457;53.590;9.922;2022-08-16T20:35:48;5.18;;;4.60;;
44728;SDS011;30457;53.590;9.922;2022-08-16T20:40:17;6.32;;;4.38;;
44728;SDS011;30457;53.590;9.922;2022-08-16T20:44:43;9.48;;;5.30;;
44728;SDS011;30457;53.590;9.922;2022-08-16T20:49:09;11.18;;;4.95;;
44728;SDS011;30457;53.590;9.922;2022-08-16T20:53:36;10.90;;;5.55;;
44728;SDS011;30457;53.590;9.922;2022-08-16T20:58:02;7.43;;;4.95;;
44728;SDS011;30457;53.590;9.922;2022-08-16T21:02:28;8.63;;;4.57;;
44728;SDS011;30457;53.590;9.922;2022-08-16T21:06:54;7.95;;;5.63;;
44728;SDS011;30457;53.590;9.922;2022-08-16T21:11:20;6.07;;;5.03;;
44728;SDS011;30457;53.590;9.922;2022-08-16T21:15:47;6.05;;;5.28;;
44728;SDS011;30457;53.590;9.922;2022-08-16T21:20:13;7.28;;;5.20;;
44728;SDS011;30457;53.590;9.922;2022-08-16T21:24:39;5.53;;;5.03;;
44728;SDS011;30457;53.590;9.922;2022-08-16T21:29:04;5.28;;;4.70;;
44728;SDS011;30457;53.590;9.922;2022-08-16T21:33:30;9.57;;;5.15;;
44728;SDS011;30457;53.590;9.922;2022-08-16T21:37:56;11.48;;;5.55;;
44728;SDS011;30457;53.590;9.922;2022-08-16T21:42:22;7.57;;;5.22;;
44728;SDS011;30457;53.590;9.922;2022-08-16T21:46:47;6.43;;;5.50;;
44728;SDS011;30457;53.590;9.922;2022-08-16T21:51:14;8.85;;;6.03;;
44728;SDS011;30457;53.590;9.922;2022-08-16T21:55:41;6.38;;;5.68;;
44728;SDS011;30457;53.590;9.922;2022-08-16T22:00:09;6.38;;;5.78;;
44728;SDS011;30457;53.590;9.922;2022-08-16T22:04:38;7.45;;;5.45;;
44728;SDS011;30457;53.590;9.922;2022-08-16T22:09:05;7.07;;;5.90;;
44728;SDS011;30457;53.590;9.922;2022-08-16T22:13:31;6.75;;;5.57;;
44728;SDS011;30457;53.590;9.922;2022-08-16T22:17:57;6.90;;;5.90;;
44728;SDS011;30457;53.590;9.922;2022-08-16T22:22:24;8.10;;;6.20;;
44728;SDS011;30457;53.590;9.922;2022-08-16T22:26:49;8.48;;;5.95;;
44728;SDS011;30457;53.590;9.922;2022-08-16T22:31:15;6.60;;;5.85;;
44728;SDS011;30457;53.590;9.922;2022-08-16T22:35:48;6.90;;;6.20;;
44728;SDS011;30457;53.590;9.922;2022-08-16T22:40:16;7.47;;;6.35;;
44728;SDS011;30457;53.590;9.922;2022-08-16T22:44:44;8.18;;;6.25;;
44728;SDS011;30457;53.590;9.922;2022-08-16T22:49:10;7.40;;;6.65;;
44728;SDS011;30457;53.590;9.922;2022-08-16T22:53:36;7.72;;;6.28;;
44728;SDS011;30457;53.590;9.922;2022-08-16T22:58:02;6.47;;;5.88;;
44728;SDS011;30457;53.590;9.922;2022-08-16T23:02:28;7.47;;;6.15;;
44728;SDS011;30457;53.590;9.922;2022-08-16T23:06:54;7.43;;;6.72;;
44728;SDS011;30457;53.590;9.922;2022-08-16T23:11:21;11.18;;;6.25;;
44728;SDS011;30457;53.590;9.922;2022-08-16T23:15:53;7.80;;;7.07;;
44728;SDS011;30457;53.590;9.922;2022-08-16T23:20:25;7.35;;;6.65;;
44728;SDS011;30457;53.590;9.922;2022-08-16T23:24:53;10.88;;;7.13;;
44728;SDS011;30457;53.590;9.922;2022-08-16T23:29:19;10.52;;;9.23;;
44728;SDS011;30457;53.590;9.922;2022-08-16T23:33:45;8.63;;;7.05;;
44728;SDS011;30457;53.590;9.922;2022-08-16T23:38:11;8.20;;;6.85;;
44728;SDS011;30457;53.590;9.922;2022-08-16T23:42:51;9.27;;;7.18;;
44728;SDS011;30457;53.590;9.922;2022-08-16T23:47:20;9.82;;;7.55;;
44728;SDS011;30457;53.590;9.922;2022-08-16T23:51:45;11.18;;;7.82;;
44728;SDS011;30457;53.590;9.922;2022-08-16T23:56:17;7.53;;;6.75;;
